sensor_id;sensor_type;location;lat;lon;timestamp;temperature;humidity
35700;DHT22;21818;51.078;12.108;2022-09-13T00:00:31;16.90;90.50
35700;DHT22;21818;51.078;12.108;2022-09-13T00:02:57;16.80;90.60
35700;DHT22;21818;51.078;12.108;2022-09-13T00:05:23;16.80;90.70
35700;DHT22;21818;51.078;12.108;2022-09-13T00:07:48;16.80;90.60
35700;DHT22;21818;51.078;12.108;2022-09-13T00:10:14;16.70;90.80
35700;DHT22;21818;51.078;12.108;2022-09-13T00:12:40;16.70;90.90
35700;DHT22;21818;51.078;12.108;2022-09-13T00:15:06;16.70;90.80
35700;DHT22;21818;51.078;12.108;2022-09-13T00:17:31;16.70;90.80
35700;DHT22;21818;51.078;12.108;2022-09-13T00:19:57;16.80;90.70
35700;DHT22;21818;51.078;12.108;2022-09-13T00:22:23;16.70;90.70
35700;DHT22;21818;51.078;12.108;2022-09-13T00:24:48;16.70;90.70
35700;DHT22;21818;51.078;12.108;2022-09-13T00:27:14;16.80;90.70
35700;DHT22;21818;51.078;12.108;2022-09-13T00:29:39;16.80;90.60
35700;DHT22;21818;51.078;12.108;2022-09-13T00:32:06;16.70;90.70
35700;DHT22;21818;51.078;12.108;2022-09-13T00:34:31;16.80;90.60
35700;DHT22;21818;51.078;12.108;2022-09-13T00:36:57;16.80;90.70
35700;DHT22;21818;51.078;12.108;2022-09-13T00:39:22;16.70;90.70
35700;DHT22;21818;51.078;12.108;2022-09-13T00:41:48;16.60;90.80
35700;DHT22;21818;51.078;12.108;2022-09-13T00:44:47;16.50;91.00
35700;DHT22;21818;51.078;12.108;2022-09-13T00:47:19;16.60;91.10
35700;DHT22;21818;51.078;12.108;2022-09-13T00:49:47;16.70;90.90
35700;DHT22;21818;51.078;12.108;2022-09-13T00:52:17;16.80;90.70
35700;DHT22;21818;51.078;12.108;2022-09-13T00:54:49;16.80;90.70
35700;DHT22;21818;51.078;12.108;2022-09-13T00:57:17;16.70;90.80
35700;DHT22;21818;51.078;12.108;2022-09-13T01:00:07;16.70;90.90
35700;DHT22;21818;51.078;12.108;2022-09-13T01:02:40;16.70;90.90
35700;DHT22;21818;51.078;12.108;2022-09-13T01:05:06;16.70;90.90
35700;DHT22;21818;51.078;12.108;2022-09-13T01:07:33;16.70;90.90
35700;DHT22;21818;51.078;12.108;2022-09-13T01:09:58;16.80;90.90
35700;DHT22;21818;51.078;12.108;2022-09-13T01:15:35;16.80;90.70
35700;DHT22;21818;51.078;12.108;2022-09-13T01:18:01;16.80;90.70
35700;DHT22;21818;51.078;12.108;2022-09-13T01:29:19;16.60;91.00
35700;DHT22;21818;51.078;12.108;2022-09-13T01:38:18;16.60;91.10
35700;DHT22;21818;51.078;12.108;2022-09-13T01:41:31;16.70;91.00
35700;DHT22;21818;51.078;12.108;2022-09-13T01:55:21;16.80;90.90
35700;DHT22;21818;51.078;12.108;2022-09-13T01:57:58;16.90;91.00
35700;DHT22;21818;51.078;12.108;2022-09-13T02:00:27;16.90;90.80
35700;DHT22;21818;51.078;12.108;2022-09-13T02:03:02;16.90;90.90
35700;DHT22;21818;51.078;12.108;2022-09-13T02:06:12;16.90;90.90
35700;DHT22;21818;51.078;12.108;2022-09-13T02:08:53;17.00;90.90
35700;DHT22;21818;51.078;12.108;2022-09-13T02:11:20;17.10;90.70
35700;DHT22;21818;51.078;12.108;2022-09-13T02:16:35;17.00;90.60
35700;DHT22;21818;51.078;12.108;2022-09-13T02:19:15;17.00;90.80
35700;DHT22;21818;51.078;12.108;2022-09-13T02:21:46;16.90;90.90
35700;DHT22;21818;51.078;12.108;2022-09-13T02:24:18;17.00;90.90
35700;DHT22;21818;51.078;12.108;2022-09-13T02:26:46;17.00;90.80
35700;DHT22;21818;51.078;12.108;2022-09-13T02:29:17;17.10;90.80
35700;DHT22;21818;51.078;12.108;2022-09-13T02:32:01;17.00;90.80
35700;DHT22;21818;51.078;12.108;2022-09-13T02:34:41;16.90;91.00
35700;DHT22;21818;51.078;12.108;2022-09-13T02:37:10;16.80;91.00
35700;DHT22;21818;51.078;12.108;2022-09-13T02:39:41;16.60;91.30
35700;DHT22;21818;51.078;12.108;2022-09-13T02:42:18;16.60;91.40
35700;DHT22;21818;51.078;12.108;2022-09-13T02:44:57;16.60;91.30
35700;DHT22;21818;51.078;12.108;2022-09-13T02:52:58;16.60;91.40
35700;DHT22;21818;51.078;12.108;2022-09-13T02:58:26;16.60;91.40
35700;DHT22;21818;51.078;12.108;2022-09-13T03:00:53;16.60;91.50
35700;DHT22;21818;51.078;12.108;2022-09-13T03:03:20;16.70;91.40
35700;DHT22;21818;51.078;12.108;2022-09-13T03:05:45;16.70;91.30
35700;DHT22;21818;51.078;12.108;2022-09-13T03:08:12;16.70;91.40
35700;DHT22;21818;51.078;12.108;2022-09-13T03:14:06;16.80;91.30
35700;DHT22;21818;51.078;12.108;2022-09-13T03:28:35;16.90;91.20
35700;DHT22;21818;51.078;12.108;2022-09-13T03:31:11;16.80;91.30
35700;DHT22;21818;51.078;12.108;2022-09-13T03:33:56;16.80;91.40
35700;DHT22;21818;51.078;12.108;2022-09-13T03:36:36;16.80;91.40
35700;DHT22;21818;51.078;12.108;2022-09-13T03:41:48;16.90;91.30
35700;DHT22;21818;51.078;12.108;2022-09-13T03:44:17;16.90;91.30
35700;DHT22;21818;51.078;12.108;2022-09-13T03:46:47;16.90;91.20
35700;DHT22;21818;51.078;12.108;2022-09-13T03:49:16;16.70;91.40
35700;DHT22;21818;51.078;12.108;2022-09-13T03:51:44;16.70;91.40
35700;DHT22;21818;51.078;12.108;2022-09-13T03:54:29;16.80;91.30
35700;DHT22;21818;51.078;12.108;2022-09-13T03:57:17;16.80;91.40
35700;DHT22;21818;51.078;12.108;2022-09-13T03:59:53;16.90;91.30
35700;DHT22;21818;51.078;12.108;2022-09-13T04:02:20;16.90;91.30
35700;DHT22;21818;51.078;12.108;2022-09-13T04:04:46;17.00;91.20
35700;DHT22;21818;51.078;12.108;2022-09-13T04:07:18;17.00;91.20
35700;DHT22;21818;51.078;12.108;2022-09-13T04:09:44;17.00;91.10
35700;DHT22;21818;51.078;12.108;2022-09-13T04:12:10;16.90;91.30
35700;DHT22;21818;51.078;12.108;2022-09-13T04:14:36;16.90;91.30
35700;DHT22;21818;51.078;12.108;2022-09-13T04:17:02;16.80;91.30
35700;DHT22;21818;51.078;12.108;2022-09-13T04:19:28;16.50;91.50
35700;DHT22;21818;51.078;12.108;2022-09-13T04:21:54;16.40;91.80
35700;DHT22;21818;51.078;12.108;2022-09-13T04:24:25;16.30;91.90
35700;DHT22;21818;51.078;12.108;2022-09-13T04:26:51;16.30;92.00
35700;DHT22;21818;51.078;12.108;2022-09-13T04:29:18;16.30;92.10
35700;DHT22;21818;51.078;12.108;2022-09-13T04:31:47;16.40;92.00
35700;DHT22;21818;51.078;12.108;2022-09-13T04:34:13;16.50;92.00
35700;DHT22;21818;51.078;12.108;2022-09-13T04:36:39;16.50;91.80
35700;DHT22;21818;51.078;12.108;2022-09-13T04:39:05;16.60;91.80
35700;DHT22;21818;51.078;12.108;2022-09-13T04:41:31;16.70;91.70
35700;DHT22;21818;51.078;12.108;2022-09-13T04:43:58;17.10;91.30
35700;DHT22;21818;51.078;12.108;2022-09-13T04:46:23;17.40;90.80
35700;DHT22;21818;51.078;12.108;2022-09-13T04:48:50;17.60;90.50
35700;DHT22;21818;51.078;12.108;2022-09-13T04:51:16;17.80;90.30
35700;DHT22;21818;51.078;12.108;2022-09-13T04:53:45;17.90;90.10
35700;DHT22;21818;51.078;12.108;2022-09-13T04:56:11;17.90;90.00
35700;DHT22;21818;51.078;12.108;2022-09-13T04:58:40;18.00;90.00
35700;DHT22;21818;51.078;12.108;2022-09-13T05:01:07;18.00;89.80
35700;DHT22;21818;51.078;12.108;2022-09-13T05:03:34;18.00;89.70
35700;DHT22;21818;51.078;12.108;2022-09-13T05:06:08;18.10;89.70
35700;DHT22;21818;51.078;12.108;2022-09-13T05:08:34;18.10;89.70
35700;DHT22;21818;51.078;12.108;2022-09-13T05:11:00;18.10;89.60
35700;DHT22;21818;51.078;12.108;2022-09-13T05:13:26;18.10;89.50
35700;DHT22;21818;51.078;12.108;2022-09-13T05:16:00;18.10;89.40
35700;DHT22;21818;51.078;12.108;2022-09-13T05:18:27;18.10;89.40
35700;DHT22;21818;51.078;12.108;2022-09-13T05:20:54;18.10;89.40
35700;DHT22;21818;51.078;12.108;2022-09-13T05:23:21;18.10;89.30
35700;DHT22;21818;51.078;12.108;2022-09-13T05:25:52;18.20;89.20
35700;DHT22;21818;51.078;12.108;2022-09-13T05:28:18;18.20;89.10
35700;DHT22;21818;51.078;12.108;2022-09-13T05:30:43;18.30;89.10
35700;DHT22;21818;51.078;12.108;2022-09-13T05:33:09;18.30;89.00
35700;DHT22;21818;51.078;12.108;2022-09-13T05:35:39;18.30;88.90
35700;DHT22;21818;51.078;12.108;2022-09-13T05:38:04;18.30;88.90
35700;DHT22;21818;51.078;12.108;2022-09-13T05:40:30;18.30;88.80
35700;DHT22;21818;51.078;12.108;2022-09-13T05:42:55;18.30;88.80
35700;DHT22;21818;51.078;12.108;2022-09-13T05:45:21;18.40;88.80
35700;DHT22;21818;51.078;12.108;2022-09-13T05:47:50;18.40;88.70
35700;DHT22;21818;51.078;12.108;2022-09-13T05:50:15;18.40;88.60
35700;DHT22;21818;51.078;12.108;2022-09-13T05:52:41;18.50;88.60
35700;DHT22;21818;51.078;12.108;2022-09-13T05:55:07;18.50;89.00
35700;DHT22;21818;51.078;12.108;2022-09-13T05:57:35;18.50;88.40
35700;DHT22;21818;51.078;12.108;2022-09-13T06:00:02;18.50;88.40
35700;DHT22;21818;51.078;12.108;2022-09-13T06:02:29;18.50;88.40
35700;DHT22;21818;51.078;12.108;2022-09-13T06:04:55;18.60;88.30
35700;DHT22;21818;51.078;12.108;2022-09-13T06:07:21;18.60;88.80
35700;DHT22;21818;51.078;12.108;2022-09-13T06:09:46;18.60;88.30
35700;DHT22;21818;51.078;12.108;2022-09-13T06:12:12;18.60;88.30
35700;DHT22;21818;51.078;12.108;2022-09-13T06:14:37;18.60;88.30
35700;DHT22;21818;51.078;12.108;2022-09-13T06:17:03;18.60;88.20
35700;DHT22;21818;51.078;12.108;2022-09-13T06:19:28;18.70;88.20
35700;DHT22;21818;51.078;12.108;2022-09-13T06:21:54;18.70;88.10
35700;DHT22;21818;51.078;12.108;2022-09-13T06:24:19;18.80;88.10
35700;DHT22;21818;51.078;12.108;2022-09-13T06:26:45;18.80;87.90
35700;DHT22;21818;51.078;12.108;2022-09-13T06:29:11;18.80;87.90
35700;DHT22;21818;51.078;12.108;2022-09-13T06:31:37;18.80;87.90
35700;DHT22;21818;51.078;12.108;2022-09-13T06:34:10;18.80;87.80
35700;DHT22;21818;51.078;12.108;2022-09-13T06:36:37;18.90;87.90
35700;DHT22;21818;51.078;12.108;2022-09-13T06:39:02;18.90;87.90
35700;DHT22;21818;51.078;12.108;2022-09-13T06:41:30;18.90;87.80
35700;DHT22;21818;51.078;12.108;2022-09-13T06:43:58;19.00;87.80
35700;DHT22;21818;51.078;12.108;2022-09-13T06:46:25;18.90;87.70
35700;DHT22;21818;51.078;12.108;2022-09-13T06:48:52;18.90;87.70
35700;DHT22;21818;51.078;12.108;2022-09-13T06:51:23;18.90;87.70
35700;DHT22;21818;51.078;12.108;2022-09-13T06:53:49;19.00;87.80
35700;DHT22;21818;51.078;12.108;2022-09-13T06:56:18;18.90;87.80
35700;DHT22;21818;51.078;12.108;2022-09-13T06:58:45;18.90;87.90
35700;DHT22;21818;51.078;12.108;2022-09-13T07:03:54;18.90;88.00
35700;DHT22;21818;51.078;12.108;2022-09-13T07:06:22;18.90;87.90
35700;DHT22;21818;51.078;12.108;2022-09-13T07:08:49;18.90;88.50
35700;DHT22;21818;51.078;12.108;2022-09-13T07:11:16;18.90;88.00
35700;DHT22;21818;51.078;12.108;2022-09-13T07:13:49;18.90;88.00
35700;DHT22;21818;51.078;12.108;2022-09-13T07:16:15;18.90;88.00
35700;DHT22;21818;51.078;12.108;2022-09-13T07:18:41;19.00;88.00
35700;DHT22;21818;51.078;12.108;2022-09-13T07:21:09;19.00;87.90
35700;DHT22;21818;51.078;12.108;2022-09-13T07:23:37;18.90;87.80
35700;DHT22;21818;51.078;12.108;2022-09-13T07:26:05;19.00;87.80
35700;DHT22;21818;51.078;12.108;2022-09-13T07:28:33;19.00;88.00
35700;DHT22;21818;51.078;12.108;2022-09-13T07:31:06;18.90;88.00
35700;DHT22;21818;51.078;12.108;2022-09-13T07:33:32;19.00;88.10
35700;DHT22;21818;51.078;12.108;2022-09-13T07:35:58;19.00;88.10
35700;DHT22;21818;51.078;12.108;2022-09-13T07:38:25;19.00;88.20
35700;DHT22;21818;51.078;12.108;2022-09-13T07:40:55;19.00;88.30
35700;DHT22;21818;51.078;12.108;2022-09-13T07:43:22;19.00;88.20
35700;DHT22;21818;51.078;12.108;2022-09-13T07:45:55;19.00;88.20
35700;DHT22;21818;51.078;12.108;2022-09-13T07:48:22;19.00;88.30
35700;DHT22;21818;51.078;12.108;2022-09-13T07:51:08;19.00;88.30
35700;DHT22;21818;51.078;12.108;2022-09-13T07:53:35;19.00;88.40
35700;DHT22;21818;51.078;12.108;2022-09-13T07:56:03;19.00;88.30
35700;DHT22;21818;51.078;12.108;2022-09-13T07:58:30;19.00;88.40
35700;DHT22;21818;51.078;12.108;2022-09-13T08:03:30;19.00;88.40
35700;DHT22;21818;51.078;12.108;2022-09-13T08:05:56;19.00;88.30
35700;DHT22;21818;51.078;12.108;2022-09-13T08:08:21;19.10;88.30
35700;DHT22;21818;51.078;12.108;2022-09-13T08:10:47;19.10;88.30
35700;DHT22;21818;51.078;12.108;2022-09-13T08:13:15;19.10;88.20
35700;DHT22;21818;51.078;12.108;2022-09-13T08:15:42;19.20;88.30
35700;DHT22;21818;51.078;12.108;2022-09-13T08:18:07;19.20;88.30
35700;DHT22;21818;51.078;12.108;2022-09-13T08:20:39;19.20;88.30
35700;DHT22;21818;51.078;12.108;2022-09-13T08:23:05;19.20;88.30
35700;DHT22;21818;51.078;12.108;2022-09-13T08:25:35;19.20;88.40
35700;DHT22;21818;51.078;12.108;2022-09-13T08:28:08;19.20;88.10
35700;DHT22;21818;51.078;12.108;2022-09-13T08:30:36;19.30;88.20
35700;DHT22;21818;51.078;12.108;2022-09-13T08:33:03;19.30;88.20
35700;DHT22;21818;51.078;12.108;2022-09-13T08:35:29;19.30;88.30
35700;DHT22;21818;51.078;12.108;2022-09-13T08:37:56;19.30;88.30
35700;DHT22;21818;51.078;12.108;2022-09-13T08:40:23;19.30;88.40
35700;DHT22;21818;51.078;12.108;2022-09-13T08:45:20;19.40;88.50
35700;DHT22;21818;51.078;12.108;2022-09-13T08:47:55;19.40;88.60
35700;DHT22;21818;51.078;12.108;2022-09-13T08:50:29;19.40;88.40
35700;DHT22;21818;51.078;12.108;2022-09-13T08:53:35;19.40;88.40
35700;DHT22;21818;51.078;12.108;2022-09-13T08:56:10;19.40;88.40
35700;DHT22;21818;51.078;12.108;2022-09-13T09:01:49;19.50;88.10
35700;DHT22;21818;51.078;12.108;2022-09-13T09:04:35;19.50;88.10
35700;DHT22;21818;51.078;12.108;2022-09-13T09:07:09;19.50;88.00
35700;DHT22;21818;51.078;12.108;2022-09-13T09:09:45;19.60;88.00
35700;DHT22;21818;51.078;12.108;2022-09-13T09:12:27;19.60;88.00
35700;DHT22;21818;51.078;12.108;2022-09-13T09:15:00;19.60;88.00
35700;DHT22;21818;51.078;12.108;2022-09-13T09:23:07;19.60;87.90
35700;DHT22;21818;51.078;12.108;2022-09-13T09:25:37;19.60;87.90
35700;DHT22;21818;51.078;12.108;2022-09-13T09:28:14;19.60;87.80
35700;DHT22;21818;51.078;12.108;2022-09-13T09:36:34;19.60;87.80
35700;DHT22;21818;51.078;12.108;2022-09-13T09:39:09;19.70;87.90
35700;DHT22;21818;51.078;12.108;2022-09-13T09:41:35;19.70;87.90
35700;DHT22;21818;51.078;12.108;2022-09-13T09:44:20;19.70;87.90
35700;DHT22;21818;51.078;12.108;2022-09-13T09:46:50;19.70;87.80
35700;DHT22;21818;51.078;12.108;2022-09-13T09:49:32;19.70;87.70
35700;DHT22;21818;51.078;12.108;2022-09-13T09:52:21;19.70;87.70
35700;DHT22;21818;51.078;12.108;2022-09-13T09:54:49;19.70;87.70
35700;DHT22;21818;51.078;12.108;2022-09-13T09:57:15;19.70;87.80
35700;DHT22;21818;51.078;12.108;2022-09-13T09:59:43;19.80;87.80
35700;DHT22;21818;51.078;12.108;2022-09-13T10:02:19;19.80;87.80
35700;DHT22;21818;51.078;12.108;2022-09-13T10:04:56;19.80;87.80
35700;DHT22;21818;51.078;12.108;2022-09-13T10:07:26;19.80;87.80
35700;DHT22;21818;51.078;12.108;2022-09-13T10:10:06;19.80;87.80
35700;DHT22;21818;51.078;12.108;2022-09-13T10:12:36;19.80;87.80
35700;DHT22;21818;51.078;12.108;2022-09-13T10:17:29;19.80;87.80
35700;DHT22;21818;51.078;12.108;2022-09-13T10:19:57;19.90;87.80
35700;DHT22;21818;51.078;12.108;2022-09-13T10:22:24;19.80;87.70
35700;DHT22;21818;51.078;12.108;2022-09-13T10:24:50;19.90;87.80
35700;DHT22;21818;51.078;12.108;2022-09-13T10:27:23;19.90;87.80
35700;DHT22;21818;51.078;12.108;2022-09-13T10:29:52;19.90;87.80
35700;DHT22;21818;51.078;12.108;2022-09-13T10:32:20;19.90;87.70
35700;DHT22;21818;51.078;12.108;2022-09-13T10:34:47;19.90;87.60
35700;DHT22;21818;51.078;12.108;2022-09-13T10:37:34;20.00;87.60
35700;DHT22;21818;51.078;12.108;2022-09-13T10:40:16;20.00;87.60
35700;DHT22;21818;51.078;12.108;2022-09-13T10:42:55;20.00;87.50
35700;DHT22;21818;51.078;12.108;2022-09-13T10:45:24;20.00;87.50
35700;DHT22;21818;51.078;12.108;2022-09-13T10:48:14;20.00;87.50
35700;DHT22;21818;51.078;12.108;2022-09-13T10:50:39;20.00;87.30
35700;DHT22;21818;51.078;12.108;2022-09-13T10:55:56;20.00;87.00
35700;DHT22;21818;51.078;12.108;2022-09-13T10:58:21;20.00;87.00
35700;DHT22;21818;51.078;12.108;2022-09-13T11:01:11;20.10;86.90
35700;DHT22;21818;51.078;12.108;2022-09-13T11:06:33;20.10;86.70
35700;DHT22;21818;51.078;12.108;2022-09-13T11:09:32;20.10;86.70
35700;DHT22;21818;51.078;12.108;2022-09-13T11:14:58;20.10;86.40
35700;DHT22;21818;51.078;12.108;2022-09-13T11:25:38;20.20;86.20
35700;DHT22;21818;51.078;12.108;2022-09-13T11:31:20;20.20;86.20
35700;DHT22;21818;51.078;12.108;2022-09-13T11:45:24;20.40;85.80
35700;DHT22;21818;51.078;12.108;2022-09-13T11:50:34;20.40;85.70
35700;DHT22;21818;51.078;12.108;2022-09-13T11:55:31;20.40;85.50
35700;DHT22;21818;51.078;12.108;2022-09-13T11:58:01;20.50;85.30
35700;DHT22;21818;51.078;12.108;2022-09-13T12:00:33;20.60;85.20
35700;DHT22;21818;51.078;12.108;2022-09-13T12:03:14;20.60;85.00
35700;DHT22;21818;51.078;12.108;2022-09-13T12:08:46;21.20;83.00
35700;DHT22;21818;51.078;12.108;2022-09-13T12:11:35;21.60;81.90
35700;DHT22;21818;51.078;12.108;2022-09-13T12:14:06;21.80;81.10
35700;DHT22;21818;51.078;12.108;2022-09-13T12:16:45;22.00;80.60
35700;DHT22;21818;51.078;12.108;2022-09-13T12:21:46;22.10;80.80
35700;DHT22;21818;51.078;12.108;2022-09-13T12:26:55;22.20;80.60
35700;DHT22;21818;51.078;12.108;2022-09-13T12:29:34;22.30;80.60
35700;DHT22;21818;51.078;12.108;2022-09-13T12:32:05;22.30;80.80
35700;DHT22;21818;51.078;12.108;2022-09-13T12:34:42;22.30;81.10
35700;DHT22;21818;51.078;12.108;2022-09-13T12:48:51;22.20;81.50
35700;DHT22;21818;51.078;12.108;2022-09-13T12:51:39;22.20;81.90
35700;DHT22;21818;51.078;12.108;2022-09-13T12:57:35;22.10;81.70
35700;DHT22;21818;51.078;12.108;2022-09-13T13:00:15;22.10;81.20
35700;DHT22;21818;51.078;12.108;2022-09-13T13:05:32;21.90;81.30
35700;DHT22;21818;51.078;12.108;2022-09-13T13:08:04;21.80;81.20
35700;DHT22;21818;51.078;12.108;2022-09-13T13:10:36;21.80;81.20
35700;DHT22;21818;51.078;12.108;2022-09-13T13:13:20;21.80;81.20
35700;DHT22;21818;51.078;12.108;2022-09-13T13:33:53;21.60;80.80
35700;DHT22;21818;51.078;12.108;2022-09-13T13:41:57;21.60;80.80
35700;DHT22;21818;51.078;12.108;2022-09-13T13:46:54;21.60;80.80
35700;DHT22;21818;51.078;12.108;2022-09-13T14:00:11;21.60;80.40
35700;DHT22;21818;51.078;12.108;2022-09-13T14:08:43;21.70;80.30
35700;DHT22;21818;51.078;12.108;2022-09-13T14:16:46;21.70;80.10
35700;DHT22;21818;51.078;12.108;2022-09-13T14:19:18;21.70;80.00
35700;DHT22;21818;51.078;12.108;2022-09-13T14:24:40;21.70;79.70
35700;DHT22;21818;51.078;12.108;2022-09-13T14:27:13;21.70;79.80
35700;DHT22;21818;51.078;12.108;2022-09-13T14:29:39;21.70;79.70
35700;DHT22;21818;51.078;12.108;2022-09-13T14:32:06;21.70;79.80
35700;DHT22;21818;51.078;12.108;2022-09-13T14:34:37;21.70;79.70
35700;DHT22;21818;51.078;12.108;2022-09-13T14:37:05;21.70;79.70
35700;DHT22;21818;51.078;12.108;2022-09-13T14:39:31;21.70;79.70
35700;DHT22;21818;51.078;12.108;2022-09-13T14:42:12;21.70;79.70
35700;DHT22;21818;51.078;12.108;2022-09-13T14:44:42;21.70;79.70
35700;DHT22;21818;51.078;12.108;2022-09-13T14:50:04;21.70;79.80
35700;DHT22;21818;51.078;12.108;2022-09-13T14:52:35;21.60;79.70
35700;DHT22;21818;51.078;12.108;2022-09-13T14:55:06;21.60;79.80
35700;DHT22;21818;51.078;12.108;2022-09-13T14:57:41;21.60;79.80
35700;DHT22;21818;51.078;12.108;2022-09-13T15:00:15;21.60;79.90
35700;DHT22;21818;51.078;12.108;2022-09-13T15:02:49;21.60;79.90
35700;DHT22;21818;51.078;12.108;2022-09-13T15:05:19;21.60;79.90
35700;DHT22;21818;51.078;12.108;2022-09-13T15:07:45;21.60;80.00
35700;DHT22;21818;51.078;12.108;2022-09-13T15:12:47;21.60;80.00
35700;DHT22;21818;51.078;12.108;2022-09-13T15:15:34;21.50;80.00
35700;DHT22;21818;51.078;12.108;2022-09-13T15:21:14;21.50;80.00
35700;DHT22;21818;51.078;12.108;2022-09-13T15:23:27;21.50;80.10
35700;DHT22;21818;51.078;12.108;2022-09-13T15:26:00;21.50;80.10
35700;DHT22;21818;51.078;12.108;2022-09-13T15:28:33;21.50;80.10
35700;DHT22;21818;51.078;12.108;2022-09-13T15:31:18;21.50;80.10
35700;DHT22;21818;51.078;12.108;2022-09-13T15:33:44;21.50;80.20
35700;DHT22;21818;51.078;12.108;2022-09-13T15:41:37;21.50;80.20
35700;DHT22;21818;51.078;12.108;2022-09-13T15:44:05;21.50;80.20
35700;DHT22;21818;51.078;12.108;2022-09-13T15:46:33;21.50;80.20
35700;DHT22;21818;51.078;12.108;2022-09-13T15:49:03;21.50;80.20
35700;DHT22;21818;51.078;12.108;2022-09-13T15:51:30;21.50;80.20
35700;DHT22;21818;51.078;12.108;2022-09-13T15:53:55;21.50;80.70
35700;DHT22;21818;51.078;12.108;2022-09-13T15:56:29;21.50;80.20
35700;DHT22;21818;51.078;12.108;2022-09-13T15:58:56;21.50;80.10
35700;DHT22;21818;51.078;12.108;2022-09-13T16:01:21;21.50;80.10
35700;DHT22;21818;51.078;12.108;2022-09-13T16:03:47;21.50;80.10
35700;DHT22;21818;51.078;12.108;2022-09-13T16:06:12;21.50;80.10
35700;DHT22;21818;51.078;12.108;2022-09-13T16:08:39;21.50;80.00
35700;DHT22;21818;51.078;12.108;2022-09-13T16:11:05;21.50;79.90
35700;DHT22;21818;51.078;12.108;2022-09-13T16:13:31;21.50;79.90
35700;DHT22;21818;51.078;12.108;2022-09-13T16:15:57;21.60;79.90
35700;DHT22;21818;51.078;12.108;2022-09-13T16:18:23;21.60;79.80
35700;DHT22;21818;51.078;12.108;2022-09-13T16:20:49;21.60;79.70
35700;DHT22;21818;51.078;12.108;2022-09-13T16:23:15;21.60;79.60
35700;DHT22;21818;51.078;12.108;2022-09-13T16:25:41;21.60;79.60
35700;DHT22;21818;51.078;12.108;2022-09-13T16:28:07;21.60;79.50
35700;DHT22;21818;51.078;12.108;2022-09-13T16:30:33;21.60;79.50
35700;DHT22;21818;51.078;12.108;2022-09-13T16:32:59;21.60;79.50
35700;DHT22;21818;51.078;12.108;2022-09-13T16:35:27;21.60;79.40
35700;DHT22;21818;51.078;12.108;2022-09-13T16:37:54;21.60;79.40
35700;DHT22;21818;51.078;12.108;2022-09-13T16:40:19;21.60;79.40
35700;DHT22;21818;51.078;12.108;2022-09-13T16:42:45;21.60;79.30
35700;DHT22;21818;51.078;12.108;2022-09-13T16:45:11;21.60;79.30
35700;DHT22;21818;51.078;12.108;2022-09-13T16:47:38;21.60;79.30
35700;DHT22;21818;51.078;12.108;2022-09-13T16:50:05;21.50;79.20
35700;DHT22;21818;51.078;12.108;2022-09-13T16:52:31;21.50;79.20
35700;DHT22;21818;51.078;12.108;2022-09-13T16:54:57;21.50;79.20
35700;DHT22;21818;51.078;12.108;2022-09-13T16:57:23;21.50;79.20
35700;DHT22;21818;51.078;12.108;2022-09-13T16:59:50;21.50;79.30
35700;DHT22;21818;51.078;12.108;2022-09-13T17:02:18;21.50;79.20
35700;DHT22;21818;51.078;12.108;2022-09-13T17:04:44;21.50;79.20
35700;DHT22;21818;51.078;12.108;2022-09-13T17:07:11;21.50;79.20
35700;DHT22;21818;51.078;12.108;2022-09-13T17:09:36;21.50;79.20
35700;DHT22;21818;51.078;12.108;2022-09-13T17:12:09;21.50;79.20
35700;DHT22;21818;51.078;12.108;2022-09-13T17:14:35;21.50;79.20
35700;DHT22;21818;51.078;12.108;2022-09-13T17:17:00;21.50;79.20
35700;DHT22;21818;51.078;12.108;2022-09-13T17:19:29;21.50;79.20
35700;DHT22;21818;51.078;12.108;2022-09-13T17:21:56;21.50;79.20
35700;DHT22;21818;51.078;12.108;2022-09-13T17:24:23;21.50;79.20
35700;DHT22;21818;51.078;12.108;2022-09-13T17:26:48;21.50;79.20
35700;DHT22;21818;51.078;12.108;2022-09-13T17:29:14;21.50;79.20
35700;DHT22;21818;51.078;12.108;2022-09-13T17:31:40;21.50;79.20
35700;DHT22;21818;51.078;12.108;2022-09-13T17:34:08;21.50;79.20
35700;DHT22;21818;51.078;12.108;2022-09-13T17:36:34;21.50;79.20
35700;DHT22;21818;51.078;12.108;2022-09-13T17:39:00;21.50;79.20
35700;DHT22;21818;51.078;12.108;2022-09-13T17:41:25;21.50;79.20
35700;DHT22;21818;51.078;12.108;2022-09-13T17:43:52;21.50;79.20
35700;DHT22;21818;51.078;12.108;2022-09-13T17:46:20;21.50;79.20
35700;DHT22;21818;51.078;12.108;2022-09-13T17:48:46;21.40;79.10
35700;DHT22;21818;51.078;12.108;2022-09-13T17:51:17;21.40;79.20
35700;DHT22;21818;51.078;12.108;2022-09-13T17:53:44;21.40;79.20
35700;DHT22;21818;51.078;12.108;2022-09-13T17:56:10;21.40;79.40
35700;DHT22;21818;51.078;12.108;2022-09-13T17:58:37;21.40;79.20
35700;DHT22;21818;51.078;12.108;2022-09-13T18:01:05;21.40;79.20
35700;DHT22;21818;51.078;12.108;2022-09-13T18:03:31;21.40;79.20
35700;DHT22;21818;51.078;12.108;2022-09-13T18:05:58;21.40;79.20
35700;DHT22;21818;51.078;12.108;2022-09-13T18:08:25;21.40;79.20
35700;DHT22;21818;51.078;12.108;2022-09-13T18:10:51;21.40;79.20
35700;DHT22;21818;51.078;12.108;2022-09-13T18:13:17;21.40;79.20
35700;DHT22;21818;51.078;12.108;2022-09-13T18:15:43;21.40;79.30
35700;DHT22;21818;51.078;12.108;2022-09-13T18:18:11;21.40;79.30
35700;DHT22;21818;51.078;12.108;2022-09-13T18:20:36;21.40;79.30
35700;DHT22;21818;51.078;12.108;2022-09-13T18:23:02;21.40;79.40
35700;DHT22;21818;51.078;12.108;2022-09-13T18:25:27;21.40;79.50
35700;DHT22;21818;51.078;12.108;2022-09-13T18:27:53;21.40;79.40
35700;DHT22;21818;51.078;12.108;2022-09-13T18:30:19;21.40;79.50
35700;DHT22;21818;51.078;12.108;2022-09-13T18:32:44;21.40;79.60
35700;DHT22;21818;51.078;12.108;2022-09-13T18:35:10;21.40;79.70
35700;DHT22;21818;51.078;12.108;2022-09-13T18:37:35;21.40;80.00
35700;DHT22;21818;51.078;12.108;2022-09-13T18:40:01;21.40;80.00
35700;DHT22;21818;51.078;12.108;2022-09-13T18:42:28;21.40;80.10
35700;DHT22;21818;51.078;12.108;2022-09-13T18:44:53;21.40;80.30
35700;DHT22;21818;51.078;12.108;2022-09-13T18:47:19;21.40;80.60
35700;DHT22;21818;51.078;12.108;2022-09-13T18:49:44;21.30;80.60
35700;DHT22;21818;51.078;12.108;2022-09-13T18:52:10;21.40;80.80
35700;DHT22;21818;51.078;12.108;2022-09-13T18:54:36;21.40;80.90
35700;DHT22;21818;51.078;12.108;2022-09-13T18:57:02;21.30;80.90
35700;DHT22;21818;51.078;12.108;2022-09-13T18:59:28;21.30;80.90
35700;DHT22;21818;51.078;12.108;2022-09-13T19:01:56;21.30;81.20